Time;durP1;ratioP1;P1;durP2;ratioP2;P2;SDS_P1;SDS_P2;PMS_P1;PMS_P2;Temp;Humidity;BMP_temperature;BMP_pressure;BME280_temperature;BME280_humidity;BME280_pressure;Samples;Min_cycle;Max_cycle;Signal;HPM_P1;HPM_P2
2023/04/03 00:02:22;;;;;;;0.63;0.20;;;;;;;;;;4984471;28;58661;-71
2023/04/03 00:04:47;;;;;;;1.55;0.30;;;;;;;;;;4980478;28;58818;-67
2023/04/03 00:07:14;;;;;;;0.40;0.20;;;;;;;;;;4980745;28;58202;-68
2023/04/03 00:09:39;;;;;;;0.20;0.20;;;;;;;;;;4983781;28;58474;-68
2023/04/03 00:12:05;;;;;;;0.47;0.13;;;;;;;;;;4988592;28;58309;-68
2023/04/03 00:14:30;;;;;;;0.10;0.10;;;;;;;;;;4990553;28;58517;-68
2023/04/03 00:16:55;;;;;;;0.47;0.03;;;;;;;;;;4986789;28;58919;-68
2023/04/03 00:19:20;;;;;;;0.40;0.30;;;;;;;;;;4985093;28;58909;-68
2023/04/03 00:21:45;;;;;;;0.70;0.13;;;;;;;;;;4987172;28;58911;-68
2023/04/03 00:24:10;;;;;;;1.38;0.10;;;;;;;;;;4987970;28;58697;-68
2023/04/03 00:26:36;;;;;;;0.20;0.10;;;;;;;;;;4984080;28;58313;-68
2023/04/03 00:29:01;;;;;;;2.57;0.20;;;;;;;;;;4981235;28;58770;-68
2023/04/03 00:31:26;;;;;;;1.65;0.13;;;;;;;;;;4986598;28;58391;-68
2023/04/03 00:33:51;;;;;;;0.17;0.17;;;;;;;;;;5014059;22;58710;-68
2023/04/03 00:36:16;;;;;;;0.10;0.10;;;;;;;;;;4998746;28;58859;-68
2023/04/03 00:38:41;;;;;;;0.55;0.30;;;;;;;;;;5000325;28;58840;-68
2023/04/03 00:41:07;;;;;;;0.20;0.10;;;;;;;;;;4993590;28;58324;-68
2023/04/03 00:43:32;;;;;;;0.10;0.10;;;;;;;;;;4997344;28;58768;-68
2023/04/03 00:45:58;;;;;;;0.10;0.10;;;;;;;;;;4997577;28;58740;-68
2023/04/03 00:48:26;;;;;;;0.22;0.13;;;;;;;;;;4997194;28;58470;-68
2023/04/03 00:50:51;;;;;;;;;;;;;;;;;;4986648;28;58541;-68
2023/04/03 00:53:18;;;;;;;1.83;0.30;;;;;;;;;;4976340;28;57990;-68
2023/04/03 00:55:45;;;;;;;1.73;0.20;;;;;;;;;;4982918;28;59059;-68
2023/04/03 00:58:11;;;;;;;0.10;0.10;;;;;;;;;;4979359;28;58822;-68
2023/04/03 01:00:38;;;;;;;0.17;0.15;;;;;;;;;;4979340;28;58898;-68
2023/04/03 01:03:03;;;;;;;0.10;0.10;;;;;;;;;;4977324;28;58863;-68
2023/04/03 01:05:28;;;;;;;0.47;0.47;;;;;;;;;;4980048;28;57923;-68
2023/04/03 01:07:54;;;;;;;0.30;0.20;;;;;;;;;;4977915;28;58684;-68
2023/04/03 01:10:20;;;;;;;0.30;0.10;;;;;;;;;;4982617;28;58772;-68
2023/04/03 01:12:46;;;;;;;0.47;0.03;;;;;;;;;;4977076;28;58692;-68
2023/04/03 01:15:17;;;;;;;0.75;0.20;;;;;;;;;;4978686;28;58591;-68
2023/04/03 01:17:49;;;;;;;0.20;0.10;;;;;;;;;;4978980;28;58787;-68
2023/04/03 01:20:35;;;;;;;0.30;0.30;;;;;;;;;;4983859;28;58744;-68
2023/04/03 01:23:18;;;;;;;0.17;0.15;;;;;;;;;;4983154;28;58393;-68
2023/04/03 01:25:44;;;;;;;0.30;0.20;;;;;;;;;;5012258;28;58585;-68
2023/04/03 01:28:11;;;;;;;0.75;0.50;;;;;;;;;;4985971;28;58597;-68
2023/04/03 01:30:41;;;;;;;0.30;0.13;;;;;;;;;;4987570;28;59080;-68
2023/04/03 01:33:06;;;;;;;0.52;0.32;;;;;;;;;;4983833;28;58776;-68
2023/04/03 01:35:31;;;;;;;0.13;0.13;;;;;;;;;;5012072;22;58672;-68
2023/04/03 01:37:56;;;;;;;0.83;0.20;;;;;;;;;;4997184;28;58114;-68
2023/04/03 01:40:21;;;;;;;1.85;0.70;;;;;;;;;;5005301;28;58770;-68
2023/04/03 01:42:46;;;;;;;0.50;0.45;;;;;;;;;;5001951;28;58813;-68
2023/04/03 01:45:11;;;;;;;0.10;0.10;;;;;;;;;;5004618;28;58740;-68
2023/04/03 01:47:37;;;;;;;0.10;0.10;;;;;;;;;;4981361;28;58297;-68
2023/04/03 01:50:02;;;;;;;0.30;0.30;;;;;;;;;;5000768;28;58218;-68
2023/04/03 01:52:27;;;;;;;0.20;0.10;;;;;;;;;;5006898;28;58832;-68
2023/04/03 01:54:52;;;;;;;0.50;0.13;;;;;;;;;;5005471;28;58589;-68
2023/04/03 01:57:17;;;;;;;0.33;0.20;;;;;;;;;;5002816;28;58147;-68
2023/04/03 01:59:43;;;;;;;0.10;0.10;;;;;;;;;;5006970;28;58208;-68
2023/04/03 02:02:08;;;;;;;0.50;0.17;;;;;;;;;;5007005;28;58769;-68
2023/04/03 02:04:33;;;;;;;0.10;0.10;;;;;;;;;;5006677;28;58451;-68
2023/04/03 02:06:58;;;;;;;0.10;0.10;;;;;;;;;;5007527;28;57793;-68
2023/04/03 02:09:24;;;;;;;0.20;0.20;;;;;;;;;;5005643;28;58146;-68
2023/04/03 02:11:49;;;;;;;0.15;0.15;;;;;;;;;;5006308;28;58773;-68
2023/04/03 02:14:14;;;;;;;0.57;0.33;;;;;;;;;;5003501;28;58024;-68
2023/04/03 02:16:39;;;;;;;0.83;0.30;;;;;;;;;;5006100;28;58677;-68
2023/04/03 02:19:05;;;;;;;0.30;0.17;;;;;;;;;;5006496;28;58727;-68
2023/04/03 02:21:30;;;;;;;0.10;0.10;;;;;;;;;;5006021;28;58410;-68
2023/04/03 02:23:55;;;;;;;0.55;0.55;;;;;;;;;;5006555;28;58328;-68
2023/04/03 02:26:20;;;;;;;0.73;0.30;;;;;;;;;;5005018;28;58552;-68
2023/04/03 02:28:46;;;;;;;0.03;0.00;;;;;;;;;;5007525;28;58691;-68
2023/04/03 02:31:11;;;;;;;0.17;0.10;;;;;;;;;;5003884;28;57975;-68
2023/04/03 02:33:36;;;;;;;0.10;0.10;;;;;;;;;;4988777;28;58521;-68
2023/04/03 02:36:02;;;;;;;0.20;0.20;;;;;;;;;;5004021;28;58144;-68
2023/04/03 02:38:28;;;;;;;0.10;0.03;;;;;;;;;;5046870;22;58662;-68
2023/04/03 02:40:53;;;;;;;0.20;0.20;;;;;;;;;;5010073;28;58646;-68
2023/04/03 02:43:18;;;;;;;0.97;0.47;;;;;;;;;;5010752;28;58902;-68
2023/04/03 02:45:43;;;;;;;0.40;0.20;;;;;;;;;;5004521;28;58704;-68
2023/04/03 02:48:08;;;;;;;1.10;0.27;;;;;;;;;;5010786;28;58339;-68
2023/04/03 02:50:33;;;;;;;0.10;0.10;;;;;;;;;;5006129;28;58637;-68
2023/04/03 02:52:59;;;;;;;0.95;0.20;;;;;;;;;;5001218;28;58641;-67
2023/04/03 02:55:24;;;;;;;0.32;0.13;;;;;;;;;;5005294;28;58922;-66
2023/04/03 02:57:49;;;;;;;0.13;0.13;;;;;;;;;;5003591;28;58611;-66
2023/04/03 03:00:15;;;;;;;0.90;0.17;;;;;;;;;;4993571;28;58459;-66
2023/04/03 03:02:40;;;;;;;0.33;0.23;;;;;;;;;;5006246;28;57935;-66
2023/04/03 03:05:06;;;;;;;0.43;0.43;;;;;;;;;;5004863;28;58769;-66
2023/04/03 03:07:31;;;;;;;0.20;0.13;;;;;;;;;;5000045;28;58318;-66
2023/04/03 03:09:56;;;;;;;0.32;0.30;;;;;;;;;;5007720;28;58503;-66
2023/04/03 03:12:23;;;;;;;0.15;0.10;;;;;;;;;;5004801;28;57958;-66
2023/04/03 03:14:48;;;;;;;0.63;0.20;;;;;;;;;;5003320;28;59645;-66
2023/04/03 03:17:13;;;;;;;0.43;0.30;;;;;;;;;;5001894;28;58466;-66
2023/04/03 03:19:38;;;;;;;0.67;0.50;;;;;;;;;;5009246;28;58239;-66
2023/04/03 03:22:03;;;;;;;0.17;0.10;;;;;;;;;;4999793;28;59036;-66
2023/04/03 03:24:29;;;;;;;1.03;0.20;;;;;;;;;;4998986;28;58526;-66
2023/04/03 03:26:54;;;;;;;0.30;0.30;;;;;;;;;;4999110;28;58534;-66
2023/04/03 03:29:19;;;;;;;0.40;0.33;;;;;;;;;;5004594;28;59681;-66
2023/04/03 03:31:45;;;;;;;0.23;0.20;;;;;;;;;;5002415;28;59423;-66
2023/04/03 03:34:10;;;;;;;0.10;0.10;;;;;;;;;;5001081;28;58377;-66
2023/04/03 03:36:35;;;;;;;0.30;0.30;;;;;;;;;;4995705;28;58216;-66
2023/04/03 03:39:01;;;;;;;0.43;0.30;;;;;;;;;;5003078;28;58607;-66
2023/04/03 03:41:26;;;;;;;0.17;0.17;;;;;;;;;;5032936;22;58756;-66
2023/04/03 03:43:51;;;;;;;0.28;0.22;;;;;;;;;;4997232;28;58466;-66
2023/04/03 03:46:16;;;;;;;0.70;0.33;;;;;;;;;;5001279;28;58652;-66
2023/04/03 03:48:41;;;;;;;0.80;0.30;;;;;;;;;;5002825;28;58466;-66
2023/04/03 03:51:07;;;;;;;0.30;0.30;;;;;;;;;;4985303;28;58543;-66
2023/04/03 03:53:32;;;;;;;0.25;0.25;;;;;;;;;;4994240;28;58456;-66
2023/04/03 03:55:57;;;;;;;0.47;0.30;;;;;;;;;;4989785;28;58079;-66
2023/04/03 03:58:22;;;;;;;0.27;0.20;;;;;;;;;;4989322;28;58366;-66
2023/04/03 04:00:47;;;;;;;0.30;0.10;;;;;;;;;;4983841;28;60864;-66
2023/04/03 04:03:12;;;;;;;0.30;0.20;;;;;;;;;;4978302;28;58544;-66
2023/04/03 04:05:37;;;;;;;0.28;0.28;;;;;;;;;;4990993;28;58758;-66
2023/04/03 04:08:03;;;;;;;0.20;0.20;;;;;;;;;;4990073;28;59194;-66
2023/04/03 04:10:28;;;;;;;0.20;0.20;;;;;;;;;;4987710;28;58795;-66
2023/04/03 04:12:53;;;;;;;0.30;0.30;;;;;;;;;;4985838;28;58215;-66
2023/04/03 04:15:18;;;;;;;1.53;0.60;;;;;;;;;;4988934;28;58668;-66
2023/04/03 04:17:43;;;;;;;0.20;0.20;;;;;;;;;;4990398;28;58336;-66
2023/04/03 04:20:09;;;;;;;0.93;0.77;;;;;;;;;;4986421;28;58553;-66
2023/04/03 04:22:34;;;;;;;0.10;0.10;;;;;;;;;;4988852;28;58760;-66
2023/04/03 04:24:59;;;;;;;0.90;0.40;;;;;;;;;;4989988;28;57899;-66
2023/04/03 04:27:24;;;;;;;0.30;0.27;;;;;;;;;;4991486;28;59020;-66
2023/04/03 04:29:49;;;;;;;0.70;0.40;;;;;;;;;;4994771;28;58651;-66
2023/04/03 04:32:15;;;;;;;0.32;0.30;;;;;;;;;;4985573;28;58415;-66
2023/04/03 04:34:40;;;;;;;0.20;0.13;;;;;;;;;;4995110;28;58040;-66
2023/04/03 04:37:05;;;;;;;0.10;0.10;;;;;;;;;;4989143;28;58464;-66
2023/04/03 04:39:30;;;;;;;0.20;0.10;;;;;;;;;;4988163;28;59084;-66
2023/04/03 04:41:55;;;;;;;0.25;0.20;;;;;;;;;;4989054;28;58628;-66
2023/04/03 04:44:20;;;;;;;0.20;0.20;;;;;;;;;;5032552;22;58540;-66
2023/04/03 04:46:45;;;;;;;0.47;0.30;;;;;;;;;;4991172;28;58807;-66
2023/04/03 04:49:11;;;;;;;0.33;0.20;;;;;;;;;;4991498;28;58659;-66
2023/04/03 04:51:36;;;;;;;0.25;0.25;;;;;;;;;;4989704;28;58416;-66
2023/04/03 04:54:01;;;;;;;0.20;0.20;;;;;;;;;;4985814;28;57774;-66
2023/04/03 04:56:26;;;;;;;0.43;0.30;;;;;;;;;;4988445;28;58280;-66
2023/04/03 04:58:51;;;;;;;0.63;0.30;;;;;;;;;;4988990;28;58060;-66
2023/04/03 05:01:16;;;;;;;0.55;0.30;;;;;;;;;;4986417;28;58567;-66
2023/04/03 05:03:41;;;;;;;0.33;0.20;;;;;;;;;;4988567;28;58337;-66
2023/04/03 05:06:07;;;;;;;0.20;0.20;;;;;;;;;;4981006;28;58364;-66
2023/04/03 05:08:32;;;;;;;1.07;0.40;;;;;;;;;;4983888;28;58897;-66
2023/04/03 05:10:57;;;;;;;0.20;0.20;;;;;;;;;;4984110;28;58313;-66
2023/04/03 05:13:22;;;;;;;0.20;0.20;;;;;;;;;;4989240;28;58292;-66
2023/04/03 05:15:47;;;;;;;0.10;0.10;;;;;;;;;;4979169;28;58355;-66
2023/04/03 05:18:12;;;;;;;0.60;0.40;;;;;;;;;;4985759;28;58385;-66
2023/04/03 05:20:38;;;;;;;0.20;0.20;;;;;;;;;;4989058;28;58765;-66
2023/04/03 05:23:03;;;;;;;0.13;0.13;;;;;;;;;;4989366;28;58656;-66
2023/04/03 05:25:28;;;;;;;0.60;0.60;;;;;;;;;;4980223;28;58416;-66
2023/04/03 05:27:53;;;;;;;0.83;0.20;;;;;;;;;;4981161;28;58556;-66
2023/04/03 05:30:18;;;;;;;0.47;0.40;;;;;;;;;;4987626;28;58321;-66
2023/04/03 05:32:44;;;;;;;0.30;0.30;;;;;;;;;;4984604;28;58671;-66
2023/04/03 05:35:09;;;;;;;0.50;0.30;;;;;;;;;;4984315;28;59491;-66
2023/04/03 05:37:34;;;;;;;0.20;0.20;;;;;;;;;;4988293;28;58459;-66
2023/04/03 05:40:00;;;;;;;0.40;0.30;;;;;;;;;;4985606;28;58621;-66
2023/04/03 05:42:25;;;;;;;0.32;0.32;;;;;;;;;;4985015;28;58560;-66
2023/04/03 05:44:50;;;;;;;0.28;0.20;;;;;;;;;;5017764;22;58884;-66
2023/04/03 05:47:16;;;;;;;0.47;0.47;;;;;;;;;;5002232;28;58614;-66
2023/04/03 05:49:41;;;;;;;1.27;1.00;;;;;;;;;;5000458;28;58814;-66
2023/04/03 05:52:16;;;;;;;0.93;0.20;;;;;;;;;;4984193;28;58218;-66
2023/04/03 05:54:41;;;;;;;0.30;0.30;;;;;;;;;;4992437;28;58651;-66
2023/04/03 05:57:07;;;;;;;0.53;0.53;;;;;;;;;;4969812;28;58335;-66
2023/04/03 05:59:32;;;;;;;0.30;0.30;;;;;;;;;;4989335;28;58240;-66
2023/04/03 06:01:57;;;;;;;0.68;0.52;;;;;;;;;;4987762;28;58631;-66
2023/04/03 06:04:22;;;;;;;0.22;0.22;;;;;;;;;;4984098;28;58274;-66
2023/04/03 06:06:54;;;;;;;0.40;0.30;;;;;;;;;;4988140;28;58393;-66
2023/04/03 06:09:21;;;;;;;0.38;0.28;;;;;;;;;;4989156;28;58020;-66
2023/04/03 06:11:46;;;;;;;0.20;0.20;;;;;;;;;;4997501;28;58201;-66
2023/04/03 06:14:12;;;;;;;0.80;0.20;;;;;;;;;;4991879;28;58434;-66
2023/04/03 06:16:38;;;;;;;0.30;0.30;;;;;;;;;;4974475;28;58525;-66
2023/04/03 06:19:04;;;;;;;0.10;0.10;;;;;;;;;;4989974;28;59249;-66
2023/04/03 06:21:29;;;;;;;0.20;0.20;;;;;;;;;;4983359;28;58319;-66
2023/04/03 06:23:54;;;;;;;0.30;0.30;;;;;;;;;;4993896;28;58285;-66
2023/04/03 06:26:20;;;;;;;0.20;0.20;;;;;;;;;;4997690;28;58475;-66
2023/04/03 06:28:45;;;;;;;1.00;0.68;;;;;;;;;;4990495;28;58822;-66
2023/04/03 06:31:11;;;;;;;0.75;0.60;;;;;;;;;;4987119;28;58708;-66
2023/04/03 06:33:36;;;;;;;2.00;0.43;;;;;;;;;;4993359;28;58854;-66
2023/04/03 06:36:03;;;;;;;0.45;0.40;;;;;;;;;;4986278;28;58434;-66
2023/04/03 06:38:28;;;;;;;0.70;0.50;;;;;;;;;;4987908;28;59671;-66
2023/04/03 06:40:54;;;;;;;0.30;0.30;;;;;;;;;;4995960;28;58316;-66
2023/04/03 06:43:19;;;;;;;1.27;0.40;;;;;;;;;;4992084;28;58606;-66
2023/04/03 06:45:45;;;;;;;2.38;0.40;;;;;;;;;;5021184;22;58320;-66
2023/04/03 06:48:10;;;;;;;0.50;0.50;;;;;;;;;;4989878;28;58810;-66
2023/04/03 06:50:35;;;;;;;1.37;0.50;;;;;;;;;;4988392;28;59045;-66
2023/04/03 06:53:00;;;;;;;3.15;0.70;;;;;;;;;;4986990;28;58453;-66
2023/04/03 06:55:26;;;;;;;1.17;0.40;;;;;;;;;;4981527;28;57990;-66
2023/04/03 06:57:51;;;;;;;2.05;1.05;;;;;;;;;;4975672;28;58641;-66
2023/04/03 07:00:17;;;;;;;1.05;0.60;;;;;;;;;;4975507;28;58501;-66
2023/04/03 07:02:42;;;;;;;1.45;0.70;;;;;;;;;;4988750;28;58504;-66
2023/04/03 07:05:08;;;;;;;3.03;0.50;;;;;;;;;;4984779;28;59058;-66
2023/04/03 07:07:34;;;;;;;0.75;0.50;;;;;;;;;;4980519;28;58601;-66
2023/04/03 07:09:59;;;;;;;1.10;0.63;;;;;;;;;;4985120;28;59191;-66
2023/04/03 07:12:25;;;;;;;1.20;0.60;;;;;;;;;;4981358;28;58298;-66
2023/04/03 07:14:50;;;;;;;0.80;0.65;;;;;;;;;;4988132;28;58028;-66
2023/04/03 07:17:15;;;;;;;2.13;0.70;;;;;;;;;;4977863;28;58427;-66
2023/04/03 07:19:40;;;;;;;2.97;0.80;;;;;;;;;;4985396;28;58396;-67
2023/04/03 07:22:06;;;;;;;0.67;0.57;;;;;;;;;;4984110;28;58626;-66
2023/04/03 07:24:31;;;;;;;2.15;0.63;;;;;;;;;;4984209;28;58416;-67
2023/04/03 07:26:56;;;;;;;0.53;0.40;;;;;;;;;;4988676;28;58337;-66
2023/04/03 07:29:21;;;;;;;3.05;1.27;;;;;;;;;;4982013;28;58342;-70
2023/04/03 07:31:46;;;;;;;4.60;0.73;;;;;;;;;;4979542;28;58296;-71
2023/04/03 07:34:12;;;;;;;1.13;0.35;;;;;;;;;;4976890;28;58607;-70
2023/04/03 07:36:37;;;;;;;1.27;0.77;;;;;;;;;;4977515;28;58801;-67
2023/04/03 07:39:02;;;;;;;1.23;0.50;;;;;;;;;;4972676;28;58699;-68
2023/04/03 07:41:28;;;;;;;0.75;0.50;;;;;;;;;;4975376;28;58459;-68
2023/04/03 07:43:54;;;;;;;3.42;0.82;;;;;;;;;;4977427;28;59324;-68
2023/04/03 07:46:20;;;;;;;0.95;0.43;;;;;;;;;;4970881;28;58760;-68
2023/04/03 07:48:45;;;;;;;3.22;0.90;;;;;;;;;;5024746;22;58697;-68
2023/04/03 07:51:10;;;;;;;2.97;0.93;;;;;;;;;;4981822;28;59228;-68
2023/04/03 07:53:36;;;;;;;1.87;0.80;;;;;;;;;;4982405;28;58459;-68
2023/04/03 07:56:02;;;;;;;2.30;0.93;;;;;;;;;;4983715;28;59053;-68
2023/04/03 07:58:27;;;;;;;2.35;0.90;;;;;;;;;;4993897;28;58606;-68
2023/04/03 08:00:53;;;;;;;1.48;0.80;;;;;;;;;;4993377;28;58378;-68
2023/04/03 08:03:18;;;;;;;1.70;0.63;;;;;;;;;;4988797;28;58376;-68
2023/04/03 08:05:44;;;;;;;1.23;1.08;;;;;;;;;;4995636;28;58588;-68
2023/04/03 08:08:10;;;;;;;1.23;1.13;;;;;;;;;;4983296;28;58437;-68
2023/04/03 08:10:35;;;;;;;1.70;0.93;;;;;;;;;;4995951;28;58518;-68
2023/04/03 08:13:01;;;;;;;2.03;0.52;;;;;;;;;;4993951;28;58676;-68
2023/04/03 08:15:26;;;;;;;2.20;0.80;;;;;;;;;;4990527;28;58749;-68
2023/04/03 08:17:51;;;;;;;2.08;0.60;;;;;;;;;;4983635;28;58571;-68
2023/04/03 08:20:17;;;;;;;1.20;0.60;;;;;;;;;;4989265;28;58294;-68
2023/04/03 08:22:42;;;;;;;1.60;0.73;;;;;;;;;;4992946;28;58677;-68
2023/04/03 08:25:10;;;;;;;0.93;0.47;;;;;;;;;;4983300;28;58456;-68
2023/04/03 08:27:35;;;;;;;;;;;;;;;;;;4994061;28;58696;-68
2023/04/03 08:30:01;;;;;;;0.93;0.65;;;;;;;;;;4982807;28;58128;-68
2023/04/03 08:32:26;;;;;;;0.50;0.40;;;;;;;;;;4998281;28;58351;-68
2023/04/03 08:34:52;;;;;;;3.00;0.88;;;;;;;;;;4988211;28;58683;-67
2023/04/03 08:37:17;;;;;;;4.03;1.00;;;;;;;;;;4993146;28;57619;-68
2023/04/03 08:39:43;;;;;;;2.47;1.07;;;;;;;;;;4996302;28;58507;-68
2023/04/03 08:42:31;;;;;;;0.82;0.60;;;;;;;;;;4996385;28;58835;-67
2023/04/03 08:45:15;;;;;;;3.30;1.10;;;;;;;;;;4988068;28;58607;-68
2023/04/03 08:47:45;;;;;;;1.85;1.17;;;;;;;;;;4993342;28;58714;-68
2023/04/03 08:50:13;;;;;;;2.42;1.17;;;;;;;;;;4990442;28;58402;-68
2023/04/03 08:52:47;;;;;;;4.03;0.98;;;;;;;;;;5006122;22;59040;-68
2023/04/03 08:55:19;;;;;;;3.75;1.00;;;;;;;;;;4979177;28;58962;-68
2023/04/03 08:57:45;;;;;;;1.52;1.08;;;;;;;;;;4975275;28;58432;-68
2023/04/03 09:00:13;;;;;;;3.53;1.48;;;;;;;;;;4978183;28;58727;-68
2023/04/03 09:02:42;;;;;;;0.80;0.75;;;;;;;;;;4978462;28;58901;-69
2023/04/03 09:05:13;;;;;;;2.63;0.80;;;;;;;;;;4977724;28;58137;-68
2023/04/03 09:07:41;;;;;;;2.22;1.05;;;;;;;;;;4978342;28;58122;-68
2023/04/03 09:10:10;;;;;;;2.70;1.38;;;;;;;;;;4980367;28;58851;-68
2023/04/03 09:12:41;;;;;;;3.15;0.95;;;;;;;;;;4978807;28;58735;-68
2023/04/03 09:15:07;;;;;;;3.47;0.88;;;;;;;;;;4977351;28;58914;-68
2023/04/03 09:17:35;;;;;;;1.93;1.17;;;;;;;;;;4977061;28;58612;-68
2023/04/03 09:20:00;;;;;;;;;;;;;;;;;;4974352;28;58374;-68
2023/04/03 09:22:26;;;;;;;1.85;0.57;;;;;;;;;;4977157;28;58755;-68
2023/04/03 09:24:57;;;;;;;4.45;0.77;;;;;;;;;;4977445;28;58297;-68
2023/04/03 09:27:22;;;;;;;1.65;0.60;;;;;;;;;;4975683;28;58846;-68
2023/04/03 09:29:49;;;;;;;3.40;1.57;;;;;;;;;;4978153;28;58638;-68
2023/04/03 09:32:19;;;;;;;1.20;1.10;;;;;;;;;;4978824;28;58488;-68
2023/04/03 09:34:44;;;;;;;1.23;0.75;;;;;;;;;;4980190;28;57930;-68
2023/04/03 09:37:09;;;;;;;2.13;0.73;;;;;;;;;;4979042;28;58539;-71
2023/04/03 09:39:49;;;;;;;1.50;1.00;;;;;;;;;;4975252;28;58910;-67
2023/04/03 09:42:17;;;;;;;3.00;0.70;;;;;;;;;;4977046;28;59560;-66
2023/04/03 09:44:53;;;;;;;3.22;0.85;;;;;;;;;;4978860;28;58625;-67
2023/04/03 09:47:23;;;;;;;1.63;0.82;;;;;;;;;;4981810;28;59402;-67
2023/04/03 09:49:48;;;;;;;4.30;1.58;;;;;;;;;;4975573;28;58949;-66
2023/04/03 09:52:22;;;;;;;1.80;0.87;;;;;;;;;;4957426;28;58345;-67
2023/04/03 09:54:47;;;;;;;3.65;0.80;;;;;;;;;;4960312;28;58492;-66
2023/04/03 09:57:13;;;;;;;3.87;0.80;;;;;;;;;;4959762;28;58546;-67
2023/04/03 09:59:57;;;;;;;0.65;0.65;;;;;;;;;;4959924;28;58554;-67
2023/04/03 10:02:30;;;;;;;2.17;1.15;;;;;;;;;;4962477;28;59086;-67
2023/04/03 10:04:56;;;;;;;2.53;0.75;;;;;;;;;;4956563;28;58223;-67
2023/04/03 10:07:26;;;;;;;2.92;0.73;;;;;;;;;;4953563;28;58741;-67
2023/04/03 10:09:59;;;;;;;1.38;0.70;;;;;;;;;;5029824;22;58183;-65
2023/04/03 10:12:24;;;;;;;8.57;1.65;;;;;;;;;;4998909;28;58337;-65
2023/04/03 10:14:52;;;;;;;2.58;0.50;;;;;;;;;;5001288;28;58351;-68
2023/04/03 10:17:18;;;;;;;;;;;;;;;;;;4995082;28;60595;-69
2023/04/03 10:19:58;;;;;;;2.15;0.70;;;;;;;;;;4998571;28;58832;-69
2023/04/03 10:22:23;;;;;;;1.70;0.60;;;;;;;;;;5003602;28;58624;-69
2023/04/03 10:25:02;;;;;;;1.42;0.63;;;;;;;;;;4997422;28;58669;-69
2023/04/03 10:27:46;;;;;;;0.95;0.47;;;;;;;;;;4999026;28;58868;-69
2023/04/03 10:30:31;;;;;;;1.17;0.77;;;;;;;;;;4997340;28;59296;-69
2023/04/03 10:33:17;;;;;;;3.72;0.35;;;;;;;;;;4996973;28;58691;-70
2023/04/03 10:35:53;;;;;;;1.73;1.05;;;;;;;;;;4997667;28;58695;-69
2023/04/03 10:38:37;;;;;;;1.42;1.20;;;;;;;;;;4997892;28;58734;-69
2023/04/03 10:41:07;;;;;;;2.55;0.60;;;;;;;;;;4996070;28;58758;-70
2023/04/03 10:43:32;;;;;;;2.35;0.82;;;;;;;;;;4997969;28;58295;-70
2023/04/03 10:46:11;;;;;;;1.13;0.70;;;;;;;;;;5000976;28;58725;-69
2023/04/03 10:48:51;;;;;;;3.13;0.68;;;;;;;;;;4999533;28;58249;-69
2023/04/03 10:51:35;;;;;;;8.80;1.13;;;;;;;;;;5003749;28;58613;-70
2023/04/03 10:54:06;;;;;;;1.35;0.65;;;;;;;;;;5003512;28;58330;-72
2023/04/03 10:56:36;;;;;;;0.60;0.40;;;;;;;;;;5004709;28;58947;-70
2023/04/03 10:59:07;;;;;;;2.00;0.50;;;;;;;;;;5006297;28;58365;-70
2023/04/03 11:01:38;;;;;;;1.00;0.60;;;;;;;;;;5005376;28;57980;-70
2023/04/03 11:04:04;;;;;;;0.98;0.68;;;;;;;;;;5003893;28;58620;-70
2023/04/03 11:06:38;;;;;;;1.95;0.60;;;;;;;;;;5005330;28;58555;-70
2023/04/03 11:11:32;;;;;;;1.60;0.98;;;;;;;;;;5025286;22;58423;-71
2023/04/03 11:14:00;;;;;;;0.47;0.20;;;;;;;;;;4997492;28;59306;-71
2023/04/03 11:16:26;;;;;;;0.98;0.45;;;;;;;;;;4998273;28;58642;-71
2023/04/03 11:18:54;;;;;;;0.90;0.40;;;;;;;;;;5001318;28;58148;-71
2023/04/03 11:21:21;;;;;;;2.00;0.82;;;;;;;;;;4996343;28;58939;-70
2023/04/03 11:23:47;;;;;;;1.02;0.60;;;;;;;;;;5001343;28;58600;-70
2023/04/03 11:26:14;;;;;;;2.50;0.75;;;;;;;;;;4999395;28;58556;-70
2023/04/03 11:28:39;;;;;;;2.00;0.60;;;;;;;;;;4999863;28;58601;-71
2023/04/03 11:31:05;;;;;;;0.45;0.45;;;;;;;;;;4996317;28;60012;-71
2023/04/03 11:33:49;;;;;;;1.70;0.50;;;;;;;;;;4999424;28;58790;-71
2023/04/03 11:36:17;;;;;;;1.48;0.65;;;;;;;;;;4998348;28;58510;-70
2023/04/03 11:38:42;;;;;;;;;;;;;;;;;;5000836;28;58375;-71
2023/04/03 11:41:08;;;;;;;0.95;0.40;;;;;;;;;;4994524;28;59155;-71
2023/04/03 11:43:39;;;;;;;1.42;0.30;;;;;;;;;;5002467;28;58699;-71
2023/04/03 11:46:06;;;;;;;1.10;0.90;;;;;;;;;;4995678;28;58383;-71
2023/04/03 11:48:31;;;;;;;2.03;0.40;;;;;;;;;;4997482;28;58566;-70
2023/04/03 11:51:17;;;;;;;0.77;0.30;;;;;;;;;;4988329;28;58419;-71
2023/04/03 11:53:43;;;;;;;0.20;0.20;;;;;;;;;;4969043;28;61708;-71
2023/04/03 11:56:23;;;;;;;2.33;0.43;;;;;;;;;;4982536;28;58894;-71
2023/04/03 11:59:07;;;;;;;0.77;0.50;;;;;;;;;;4993583;28;60527;-71
2023/04/03 12:01:44;;;;;;;1.52;0.40;;;;;;;;;;4981607;28;58448;-71
2023/04/03 12:04:13;;;;;;;0.52;0.20;;;;;;;;;;4983754;28;58201;-71
2023/04/03 12:06:38;;;;;;;1.02;0.70;;;;;;;;;;4983415;28;60026;-71
2023/04/03 12:09:15;;;;;;;0.90;0.50;;;;;;;;;;4981835;28;59052;-70
2023/04/03 12:11:40;;;;;;;0.93;0.50;;;;;;;;;;5017890;22;58688;-71
2023/04/03 12:14:13;;;;;;;1.63;0.73;;;;;;;;;;4998381;28;58704;-70
2023/04/03 12:16:38;;;;;;;1.05;0.30;;;;;;;;;;5016329;28;58377;-71
2023/04/03 12:19:04;;;;;;;0.70;0.20;;;;;;;;;;5001555;28;58737;-71
2023/04/03 12:21:29;;;;;;;0.47;0.40;;;;;;;;;;5002850;28;58938;-71
2023/04/03 12:24:06;;;;;;;1.17;0.28;;;;;;;;;;4998751;28;58212;-70
2023/04/03 12:26:36;;;;;;;1.00;0.35;;;;;;;;;;4995761;28;63197;-70
2023/04/03 12:29:10;;;;;;;1.83;0.93;;;;;;;;;;4996663;28;58710;-70
2023/04/03 12:31:42;;;;;;;3.38;0.30;;;;;;;;;;4999794;28;58269;-71
2023/04/03 12:34:27;;;;;;;0.50;0.40;;;;;;;;;;4995439;28;58818;-69
2023/04/03 12:37:01;;;;;;;0.88;0.50;;;;;;;;;;4994457;28;58590;-69
2023/04/03 12:39:45;;;;;;;0.63;0.40;;;;;;;;;;4996719;28;59822;-69
2023/04/03 12:42:23;;;;;;;1.20;0.95;;;;;;;;;;4996385;28;58594;-70
2023/04/03 12:44:54;;;;;;;0.50;0.37;;;;;;;;;;4994589;28;58454;-70
2023/04/03 12:47:28;;;;;;;0.63;0.45;;;;;;;;;;4996471;28;59305;-70
2023/04/03 12:49:53;;;;;;;0.22;0.20;;;;;;;;;;4992178;28;58658;-70
2023/04/03 12:52:23;;;;;;;2.77;1.00;;;;;;;;;;4993769;28;58741;-69
2023/04/03 12:54:49;;;;;;;0.40;0.38;;;;;;;;;;4996850;28;59710;-70
2023/04/03 12:57:19;;;;;;;0.50;0.50;;;;;;;;;;4994876;28;58842;-69
2023/04/03 12:59:46;;;;;;;0.47;0.25;;;;;;;;;;4998962;28;58675;-72
2023/04/03 13:02:31;;;;;;;1.77;0.30;;;;;;;;;;4993140;28;58925;-72
2023/04/03 13:04:58;;;;;;;2.08;0.30;;;;;;;;;;4992187;28;58829;-72
2023/04/03 13:07:27;;;;;;;1.05;0.30;;;;;;;;;;4996022;28;58363;-71
2023/04/03 13:10:00;;;;;;;0.70;0.20;;;;;;;;;;4993691;28;58490;-72
2023/04/03 13:12:25;;;;;;;0.70;0.38;;;;;;;;;;5015754;23;58590;-72
2023/04/03 13:15:03;;;;;;;4.70;0.57;;;;;;;;;;4999554;28;58455;-72
2023/04/03 13:17:29;;;;;;;0.38;0.20;;;;;;;;;;4998781;28;62209;-72
2023/04/03 13:19:54;;;;;;;3.10;0.30;;;;;;;;;;4997039;28;58132;-72
2023/04/03 13:22:19;;;;;;;0.87;0.50;;;;;;;;;;4993733;28;58691;-72
2023/04/03 13:24:46;;;;;;;2.03;0.95;;;;;;;;;;5000229;28;58385;-72
2023/04/03 13:27:11;;;;;;;1.35;0.88;;;;;;;;;;4997718;28;58640;-72
2023/04/03 13:29:36;;;;;;;1.10;0.30;;;;;;;;;;4999148;28;60547;-72
2023/04/03 13:32:03;;;;;;;1.90;0.25;;;;;;;;;;4997931;28;58699;-72
2023/04/03 13:34:35;;;;;;;1.17;0.30;;;;;;;;;;4994757;28;58679;-73
2023/04/03 13:37:03;;;;;;;1.80;0.45;;;;;;;;;;4999104;28;58502;-72
2023/04/03 13:39:30;;;;;;;2.25;0.50;;;;;;;;;;4999724;28;58671;-72
2023/04/03 13:42:14;;;;;;;3.10;1.05;;;;;;;;;;4980427;28;59704;-72
2023/04/03 13:44:39;;;;;;;1.60;0.65;;;;;;;;;;4996384;28;58891;-72
2023/04/03 13:47:07;;;;;;;3.80;0.63;;;;;;;;;;4998462;28;58379;-72
2023/04/03 13:49:32;;;;;;;;;;;;;;;;;;5000366;28;58999;-72
2023/04/03 13:51:58;;;;;;;1.75;0.50;;;;;;;;;;5004633;28;58808;-72
2023/04/03 13:54:25;;;;;;;4.13;0.30;;;;;;;;;;4984410;28;60120;-72
2023/04/03 13:56:55;;;;;;;21.23;0.98;;;;;;;;;;5000731;28;58932;-72
2023/04/03 13:59:22;;;;;;;1.50;0.43;;;;;;;;;;5002148;28;57788;-72
2023/04/03 14:01:50;;;;;;;4.50;0.60;;;;;;;;;;5003190;28;59907;-73
2023/04/03 14:04:18;;;;;;;0.10;0.10;;;;;;;;;;4998576;28;58439;-73
2023/04/03 14:06:43;;;;;;;2.33;0.30;;;;;;;;;;5004252;28;61433;-73
2023/04/03 14:09:09;;;;;;;1.20;0.73;;;;;;;;;;5002938;28;58380;-72
2023/04/03 14:11:34;;;;;;;2.03;0.50;;;;;;;;;;5017087;28;58716;-73
2023/04/03 14:14:01;;;;;;;3.00;0.35;;;;;;;;;;5018168;22;58984;-72
2023/04/03 14:16:30;;;;;;;1.42;0.25;;;;;;;;;;4980754;28;58682;-73
2023/04/03 14:18:55;;;;;;;2.92;0.75;;;;;;;;;;4982119;28;58520;-72
2023/04/03 14:21:21;;;;;;;1.85;0.70;;;;;;;;;;4983087;28;58622;-73
2023/04/03 14:23:46;;;;;;;2.08;0.63;;;;;;;;;;4980985;28;58740;-72
2023/04/03 14:26:13;;;;;;;0.47;0.17;;;;;;;;;;4983359;28;58390;-72
2023/04/03 14:28:39;;;;;;;0.57;0.45;;;;;;;;;;4985339;28;58745;-72
2023/04/03 14:31:05;;;;;;;1.45;0.38;;;;;;;;;;4986647;28;58406;-71
2023/04/03 14:33:34;;;;;;;1.65;0.20;;;;;;;;;;4984341;28;58731;-72
2023/04/03 14:36:00;;;;;;;1.42;0.32;;;;;;;;;;4986062;28;58668;-73
2023/04/03 14:38:29;;;;;;;1.20;0.40;;;;;;;;;;4963525;28;58455;-73
2023/04/03 14:40:55;;;;;;;5.65;0.90;;;;;;;;;;4974606;28;59475;-72
2023/04/03 14:43:20;;;;;;;2.40;0.37;;;;;;;;;;4985359;28;58716;-72
2023/04/03 14:45:46;;;;;;;0.73;0.30;;;;;;;;;;4985192;28;58792;-72
2023/04/03 14:48:30;;;;;;;3.85;0.85;;;;;;;;;;4964839;28;60917;-71
2023/04/03 14:50:55;;;;;;;8.15;0.50;;;;;;;;;;4982971;28;58465;-72